createdAt,value
2022-12-14T00:01:48.889Z,74.26
2022-12-14T00:04:17.267Z,75.79
2022-12-14T00:06:44.694Z,76.09
2022-12-14T00:09:12.093Z,75.04
2022-12-14T00:11:40.107Z,75.08
2022-12-14T00:14:07.587Z,75.63
2022-12-14T00:16:35.293Z,76.13
2022-12-14T00:19:04.446Z,76.16
2022-12-14T00:21:31.788Z,75.91
2022-12-14T00:24:00.399Z,75.47
2022-12-14T00:26:31.210Z,75.14
2022-12-14T00:29:00.573Z,75.70
2022-12-14T00:31:28.488Z,76.45
2022-12-14T00:33:55.920Z,75.04
2022-12-14T00:36:23.303Z,76.55
2022-12-14T00:38:51.129Z,75.25
2022-12-14T00:41:18.503Z,76.67
2022-12-14T00:43:49.542Z,77.00
2022-12-14T00:46:18.113Z,76.95
2022-12-14T00:48:46.107Z,77.24
2022-12-14T00:51:14.988Z,76.38
2022-12-14T00:53:44.507Z,77.13
2022-12-14T00:56:12.092Z,76.77
2022-12-14T00:58:39.544Z,75.71
2022-12-14T01:01:12.714Z,76.52
2022-12-14T01:03:40.424Z,76.79
2022-12-14T01:06:16.510Z,75.98
2022-12-14T01:08:43.869Z,77.02
2022-12-14T01:11:12.398Z,77.14
2022-12-14T01:13:40.339Z,77.93
2022-12-14T01:16:14.537Z,77.06
2022-12-14T01:18:43.301Z,77.79
2022-12-14T01:21:13.512Z,77.58
2022-12-14T01:23:41.764Z,77.16
2022-12-14T01:26:09.823Z,75.32
2022-12-14T01:28:37.200Z,75.53
2022-12-14T01:31:15.938Z,75.46
2022-12-14T01:33:44.872Z,74.90
2022-12-14T01:36:15.294Z,74.87
2022-12-14T01:38:43.195Z,75.32
2022-12-14T01:41:24.183Z,76.51
2022-12-14T01:43:57.446Z,75.52
2022-12-14T01:46:47.130Z,75.68
2022-12-14T01:49:32.903Z,78.09
2022-12-14T01:52:21.659Z,79.75
2022-12-14T01:54:53.678Z,79.88
2022-12-14T01:57:24.944Z,79.17
2022-12-14T01:59:53.129Z,79.20
2022-12-14T02:02:22.359Z,78.20
2022-12-14T02:04:54.111Z,79.63
2022-12-14T02:07:21.881Z,77.82
2022-12-14T02:09:49.971Z,79.42
2022-12-14T02:12:20.878Z,77.52
2022-12-14T02:14:48.433Z,81.26
2022-12-14T02:17:16.690Z,81.27
2022-12-14T02:19:44.342Z,80.01
2022-12-14T02:22:32.985Z,79.81
2022-12-14T02:25:31.715Z,79.17
2022-12-14T02:28:10.924Z,80.50
2022-12-14T02:30:42.752Z,81.00
2022-12-14T02:33:19.142Z,82.46
2022-12-14T02:36:01.947Z,80.99
2022-12-14T02:38:38.672Z,82.20
2022-12-14T02:41:24.956Z,80.47
2022-12-14T02:44:16.839Z,78.82
2022-12-14T02:47:05.062Z,79.83
2022-12-14T02:50:07.029Z,79.68
2022-12-14T02:53:12.200Z,80.54
2022-12-14T02:55:46.390Z,78.99
2022-12-14T02:58:20.385Z,80.01
2022-12-14T03:00:48.236Z,79.63
2022-12-14T03:03:16.288Z,79.98
2022-12-14T03:05:43.711Z,79.68
2022-12-14T03:08:13.583Z,79.50
2022-12-14T03:10:51.732Z,80.63
2022-12-14T03:13:24.640Z,81.20
2022-12-14T03:16:00.968Z,82.10
2022-12-14T03:18:33.500Z,82.84
2022-12-14T03:21:02.234Z,83.89
2022-12-14T03:23:33.214Z,83.67
2022-12-14T03:26:29.004Z,82.89
2022-12-14T03:28:57.922Z,83.09
2022-12-14T03:31:59.089Z,83.87
2022-12-14T03:34:37.482Z,82.11
2022-12-14T03:37:10.379Z,82.84
2022-12-14T03:39:40.020Z,82.27
2022-12-14T03:42:32.970Z,84.80
2022-12-14T03:45:15.556Z,83.19
2022-12-14T03:48:07.888Z,82.66
2022-12-14T03:50:41.853Z,81.95
2022-12-14T03:53:17.101Z,83.94
2022-12-14T03:56:05.485Z,84.04
2022-12-14T03:59:05.362Z,83.98
2022-12-14T04:01:52.989Z,83.76
2022-12-14T04:04:46.671Z,83.25
2022-12-14T04:07:20.158Z,83.13
2022-12-14T04:10:04.373Z,81.11
2022-12-14T04:12:53.442Z,81.49
2022-12-14T04:15:43.753Z,85.08
2022-12-14T04:18:33.698Z,82.26
2022-12-14T04:21:24.546Z,84.88
2022-12-14T04:24:19.558Z,84.49
2022-12-14T04:26:55.140Z,84.44
2022-12-14T04:29:47.316Z,84.19
2022-12-14T04:32:20.563Z,86.17
2022-12-14T04:34:51.188Z,84.92
2022-12-14T04:37:20.534Z,86.48
2022-12-14T04:39:54.817Z,86.13
2022-12-14T04:42:27.008Z,86.27
2022-12-14T04:44:59.728Z,87.51
2022-12-14T04:47:31.642Z,85.44
2022-12-14T04:50:08.294Z,86.03
2022-12-14T04:52:44.218Z,86.27
2022-12-14T04:55:26.446Z,84.44
2022-12-14T04:58:16.141Z,83.75
2022-12-14T05:01:45.318Z,82.37
2022-12-14T05:04:57.368Z,82.57
2022-12-14T05:07:42.571Z,81.91
2022-12-14T05:10:20.078Z,83.70
2022-12-14T05:12:55.859Z,84.96
2022-12-14T05:15:27.209Z,84.72
2022-12-14T05:17:55.507Z,84.00
2022-12-14T05:20:24.645Z,81.94
2022-12-14T05:22:52.747Z,82.30
2022-12-14T05:25:30.030Z,83.30
2022-12-14T05:28:00.501Z,82.55
2022-12-14T05:30:27.968Z,81.18
2022-12-14T05:32:55.387Z,81.31
2022-12-14T05:35:23.024Z,80.52
2022-12-14T05:37:50.441Z,79.66
2022-12-14T05:40:17.999Z,78.63
2022-12-14T05:42:48.755Z,78.79
2022-12-14T05:45:20.119Z,80.56
2022-12-14T05:47:47.797Z,80.13
2022-12-14T05:50:15.296Z,79.58
2022-12-14T05:52:43.656Z,79.28
2022-12-14T05:55:11.294Z,77.55
2022-12-14T05:57:38.639Z,75.59
2022-12-14T06:00:06.397Z,77.87
2022-12-14T06:02:34.117Z,76.11
2022-12-14T06:05:01.500Z,77.12
2022-12-14T06:07:28.935Z,79.00
2022-12-14T06:09:56.688Z,77.18
2022-12-14T06:12:24.095Z,78.15
2022-12-14T06:14:51.492Z,78.42
2022-12-14T06:17:19.130Z,77.73
2022-12-14T06:19:49.871Z,78.36
2022-12-14T06:22:18.566Z,77.39
2022-12-14T06:24:46.227Z,79.02
2022-12-14T06:27:13.569Z,77.49
2022-12-14T06:29:40.953Z,77.75
2022-12-14T06:32:08.641Z,76.80
2022-12-14T06:34:39.820Z,77.30
2022-12-14T06:37:09.325Z,76.20
2022-12-14T06:39:36.745Z,76.70
2022-12-14T06:42:04.223Z,77.81
2022-12-14T06:44:31.905Z,78.55
2022-12-14T06:46:59.456Z,78.86
2022-12-14T06:49:26.903Z,78.02
2022-12-14T06:51:54.503Z,76.58
2022-12-14T06:54:21.874Z,77.78
2022-12-14T06:56:49.212Z,77.76
2022-12-14T06:59:17.284Z,78.12
2022-12-14T07:01:46.060Z,76.92
2022-12-14T07:04:21.009Z,77.14
2022-12-14T07:06:48.387Z,77.34
2022-12-14T07:09:15.721Z,79.46
2022-12-14T07:11:43.733Z,80.35
2022-12-14T07:14:16.032Z,78.92
2022-12-14T07:16:47.764Z,77.80
2022-12-14T07:19:16.435Z,78.31
2022-12-14T07:21:44.084Z,77.98
2022-12-14T07:24:11.447Z,78.10
2022-12-14T07:26:38.858Z,77.01
2022-12-14T07:29:06.684Z,77.82
2022-12-14T07:31:34.185Z,77.16
2022-12-14T07:34:01.591Z,78.23
2022-12-14T07:36:29.998Z,79.18
2022-12-14T07:38:57.638Z,78.91
2022-12-14T07:41:28.034Z,79.99
2022-12-14T07:43:56.215Z,79.13
2022-12-14T07:46:25.704Z,77.45
2022-12-14T07:48:55.392Z,78.82
2022-12-14T07:51:28.930Z,79.29
2022-12-14T07:53:57.010Z,78.31
2022-12-14T07:56:28.599Z,77.45
2022-12-14T07:58:57.615Z,75.96
2022-12-14T08:01:34.214Z,76.07
2022-12-14T08:04:13.960Z,75.33
2022-12-14T08:06:41.622Z,76.19
2022-12-14T08:09:10.897Z,74.39
2022-12-14T08:11:39.033Z,76.23
2022-12-14T08:14:09.052Z,74.67
2022-12-14T08:16:36.775Z,75.52
2022-12-14T08:19:04.234Z,73.66
2022-12-14T08:21:31.676Z,73.67
2022-12-14T08:23:59.475Z,74.63
2022-12-14T08:26:34.963Z,74.56
2022-12-14T08:29:04.189Z,75.13
2022-12-14T08:31:32.287Z,75.33
2022-12-14T08:34:00.479Z,74.66
2022-12-14T08:36:30.430Z,76.14
2022-12-14T08:38:59.825Z,75.31
2022-12-14T08:41:28.189Z,74.86
2022-12-14T08:43:57.639Z,76.51
2022-12-14T08:46:26.812Z,77.01
2022-12-14T08:48:55.398Z,76.15
2022-12-14T08:51:24.243Z,76.38
2022-12-14T08:53:52.395Z,76.55
2022-12-14T08:56:22.214Z,75.74
2022-12-14T08:58:49.838Z,74.50
2022-12-14T09:01:32.380Z,74.98
2022-12-14T09:04:06.055Z,74.99
2022-12-14T09:06:35.897Z,75.87
2022-12-14T09:09:04.497Z,73.86
2022-12-14T09:11:31.876Z,75.15
2022-12-14T09:13:59.418Z,74.86
2022-12-14T09:16:27.082Z,72.38
2022-12-14T09:18:54.884Z,73.74
2022-12-14T09:21:22.440Z,74.05
2022-12-14T09:23:57.332Z,75.23
2022-12-14T09:26:27.743Z,73.76
2022-12-14T09:28:56.963Z,74.09
2022-12-14T09:31:26.288Z,73.30
2022-12-14T09:33:54.876Z,72.98
2022-12-14T09:36:24.646Z,73.22
2022-12-14T09:38:52.751Z,72.50
2022-12-14T09:41:33.669Z,73.53
2022-12-14T09:44:18.791Z,73.51
2022-12-14T09:46:56.427Z,74.70
2022-12-14T09:49:28.578Z,73.73
2022-12-14T09:51:59.184Z,74.03
2022-12-14T09:54:30.312Z,74.11
2022-12-14T09:57:01.591Z,73.29
2022-12-14T09:59:31.865Z,71.97
2022-12-14T10:02:30.932Z,72.86
2022-12-14T10:05:25.828Z,73.85
2022-12-14T10:07:56.418Z,73.25
2022-12-14T10:10:28.573Z,71.48
2022-12-14T10:13:21.911Z,71.48
2022-12-14T10:16:03.783Z,71.73
2022-12-14T10:18:59.367Z,71.54
2022-12-14T10:21:38.759Z,71.20
2022-12-14T10:24:07.217Z,70.53
2022-12-14T10:26:40.335Z,70.93
2022-12-14T10:29:18.871Z,72.07
2022-12-14T10:32:14.105Z,71.07
2022-12-14T10:34:42.153Z,70.04
2022-12-14T10:37:27.548Z,71.68
2022-12-14T10:40:26.219Z,71.78
2022-12-14T10:43:35.870Z,70.76
2022-12-14T10:46:14.776Z,69.58
2022-12-14T10:49:09.837Z,69.81
2022-12-14T10:51:42.365Z,71.01
2022-12-14T10:54:24.441Z,70.99
2022-12-14T10:56:51.935Z,71.64
2022-12-14T10:59:23.619Z,72.33
2022-12-14T11:01:59.712Z,72.16
2022-12-14T11:04:40.380Z,70.55
2022-12-14T11:07:09.536Z,70.87
2022-12-14T11:09:38.510Z,70.66
2022-12-14T11:12:18.435Z,71.06
2022-12-14T11:14:54.896Z,70.08
2022-12-14T11:17:43.113Z,70.74
2022-12-14T11:20:20.654Z,70.27
2022-12-14T11:22:55.145Z,71.68
2022-12-14T11:25:25.531Z,69.23
2022-12-14T11:27:54.429Z,68.57
2022-12-14T11:30:21.981Z,68.98
2022-12-14T11:32:49.982Z,68.77
2022-12-14T11:35:19.207Z,68.43
2022-12-14T11:37:49.217Z,68.11
2022-12-14T11:40:26.109Z,68.20
2022-12-14T11:43:03.430Z,68.84
2022-12-14T11:45:36.499Z,67.68
2022-12-14T11:48:16.019Z,68.68
2022-12-14T11:50:44.750Z,66.96
2022-12-14T11:53:14.561Z,67.70
2022-12-14T11:56:03.679Z,66.31
2022-12-14T11:58:34.377Z,67.12
2022-12-14T12:01:21.035Z,67.74
2022-12-14T12:03:50.617Z,67.07
2022-12-14T12:06:29.460Z,67.54
2022-12-14T12:09:00.005Z,66.70
2022-12-14T12:11:30.519Z,66.89
2022-12-14T12:14:24.645Z,66.24
2022-12-14T12:16:53.258Z,66.65
2022-12-14T12:19:34.967Z,64.79
2022-12-14T12:22:03.401Z,66.00
2022-12-14T12:24:32.243Z,65.44
2022-12-14T12:27:11.823Z,66.10
2022-12-14T12:30:01.009Z,65.76
2022-12-14T12:32:43.782Z,65.67
2022-12-14T12:35:25.154Z,65.88
2022-12-14T12:38:09.798Z,67.34
2022-12-14T12:41:28.807Z,67.19
2022-12-14T12:44:01.503Z,65.51
2022-12-14T12:46:37.892Z,65.08
2022-12-14T12:49:15.857Z,67.36
2022-12-14T12:51:54.287Z,68.36
2022-12-14T12:54:29.135Z,68.21
2022-12-14T12:56:58.461Z,68.14
2022-12-14T12:59:42.985Z,67.20
2022-12-14T13:02:22.424Z,68.60
2022-12-14T13:04:52.883Z,67.51
2022-12-14T13:07:25.791Z,66.23
2022-12-14T13:10:05.188Z,67.82
2022-12-14T13:12:37.452Z,67.91
2022-12-14T13:15:16.134Z,67.14
2022-12-14T13:17:49.401Z,67.59
2022-12-14T13:20:23.022Z,68.85
2022-12-14T13:22:50.971Z,67.87
2022-12-14T13:25:21.045Z,67.32
2022-12-14T13:28:07.556Z,67.01
2022-12-14T13:30:55.684Z,68.81
2022-12-14T13:33:25.957Z,68.73
2022-12-14T13:36:34.878Z,68.56
2022-12-14T13:39:11.049Z,68.85
2022-12-14T13:41:53.318Z,68.70
2022-12-14T13:44:34.465Z,67.57
2022-12-14T13:47:06.450Z,68.05
2022-12-14T13:49:33.878Z,68.80
2022-12-14T13:52:01.370Z,69.89
2022-12-14T13:54:31.734Z,68.90
2022-12-14T13:57:21.861Z,68.65
2022-12-14T13:59:53.868Z,67.73
2022-12-14T14:02:30.657Z,66.89
2022-12-14T14:05:20.247Z,68.33
2022-12-14T14:08:39.205Z,69.19
2022-12-14T14:11:36.509Z,69.27
2022-12-14T14:14:36.183Z,68.20
2022-12-14T14:17:11.571Z,69.21
2022-12-14T14:19:41.288Z,70.01
2022-12-14T14:22:25.217Z,70.73
2022-12-14T14:24:57.257Z,69.14
2022-12-14T14:27:33.930Z,68.79
2022-12-14T14:30:01.659Z,69.04
2022-12-14T14:32:42.194Z,68.30
2022-12-14T14:35:34.713Z,67.96
2022-12-14T14:38:22.479Z,67.62
2022-12-14T14:43:51.562Z,69.30
2022-12-14T14:46:22.832Z,68.41
2022-12-14T14:48:53.352Z,68.41
2022-12-14T14:51:25.213Z,68.87
2022-12-14T14:55:11.113Z,68.07
2022-12-14T14:58:09.310Z,69.33
2022-12-14T15:00:41.873Z,69.65
2022-12-14T15:03:13.035Z,69.83
2022-12-14T15:05:43.017Z,70.37
2022-12-14T15:08:35.807Z,70.72
2022-12-14T15:11:06.177Z,70.98
2022-12-14T15:13:47.377Z,70.95
2022-12-14T15:16:23.832Z,70.31
2022-12-14T15:18:51.217Z,69.49
2022-12-14T15:21:19.531Z,71.45
2022-12-14T15:23:49.995Z,70.72
2022-12-14T15:26:24.365Z,70.03
2022-12-14T15:28:54.973Z,69.51
2022-12-14T15:31:32.536Z,70.28
2022-12-14T15:34:00.905Z,69.52
2022-12-14T15:36:31.119Z,70.85
2022-12-14T15:38:59.069Z,71.08
2022-12-14T15:41:33.023Z,71.65
2022-12-14T15:44:00.953Z,71.66
2022-12-14T15:46:30.863Z,71.56
2022-12-14T15:49:05.370Z,71.82
2022-12-14T15:51:36.357Z,70.88
2022-12-14T15:54:05.388Z,71.68
2022-12-14T15:56:41.542Z,72.00
2022-12-14T15:59:18.004Z,73.29
2022-12-14T16:01:53.722Z,72.14
2022-12-14T16:04:23.603Z,71.74
2022-12-14T16:07:01.748Z,72.27
2022-12-14T16:09:58.922Z,71.71
2022-12-14T16:12:45.441Z,71.24
2022-12-14T16:15:18.157Z,71.39
2022-12-14T16:17:45.916Z,71.06
2022-12-14T16:20:22.346Z,72.47
2022-12-14T16:23:01.662Z,71.32
2022-12-14T16:25:31.476Z,72.99
2022-12-14T16:28:20.172Z,72.67
2022-12-14T16:31:00.800Z,73.63
2022-12-14T16:33:29.589Z,73.10
2022-12-14T16:35:59.882Z,73.21
2022-12-14T16:38:27.960Z,74.62
2022-12-14T16:41:00.701Z,73.03
2022-12-14T16:43:33.613Z,72.49
2022-12-14T16:46:04.641Z,71.80
2022-12-14T16:48:35.275Z,72.49
2022-12-14T16:51:44.868Z,73.69
2022-12-14T16:54:27.226Z,73.11
2022-12-14T16:57:04.924Z,73.52
2022-12-14T16:59:41.493Z,73.70
2022-12-14T17:02:33.866Z,72.22
2022-12-14T17:05:05.818Z,72.50
2022-12-14T17:07:34.421Z,72.88
2022-12-14T17:10:02.596Z,72.20
2022-12-14T17:12:30.602Z,71.82
2022-12-14T17:15:00.030Z,71.17
2022-12-14T17:17:33.593Z,70.49
2022-12-14T17:20:05.874Z,71.31
2022-12-14T17:22:38.850Z,70.41
2022-12-14T17:25:06.536Z,71.53
2022-12-14T17:27:35.812Z,73.01
2022-12-14T17:30:04.874Z,72.03
2022-12-14T17:32:35.936Z,72.87
2022-12-14T17:35:09.019Z,72.57
2022-12-14T17:37:37.740Z,71.70
2022-12-14T17:40:06.196Z,70.53
2022-12-14T17:42:36.901Z,71.36
2022-12-14T17:45:05.739Z,73.06
2022-12-14T17:47:35.658Z,71.99
2022-12-14T17:50:03.838Z,71.41
2022-12-14T17:52:32.867Z,72.02
2022-12-14T17:55:01.053Z,70.78
2022-12-14T17:57:30.182Z,72.86
2022-12-14T18:00:25.340Z,71.72
2022-12-14T18:02:55.667Z,70.09
2022-12-14T18:05:23.924Z,70.06
2022-12-14T18:07:52.440Z,71.01
2022-12-14T18:10:20.792Z,70.43
2022-12-14T18:12:49.644Z,72.28
2022-12-14T18:15:27.784Z,71.01
2022-12-14T18:17:58.179Z,70.39
2022-12-14T18:20:28.389Z,72.71
2022-12-14T18:22:59.748Z,72.38
2022-12-14T18:25:43.230Z,72.65
2022-12-14T18:28:17.752Z,71.89
2022-12-14T18:30:50.928Z,70.43
2022-12-14T18:33:22.732Z,71.78
2022-12-14T18:35:53.112Z,70.75
2022-12-14T18:38:21.821Z,70.28
2022-12-14T18:40:52.097Z,70.88
2022-12-14T18:43:24.469Z,72.04
2022-12-14T18:45:53.523Z,71.77
2022-12-14T18:48:23.029Z,71.06
2022-12-14T18:50:54.808Z,71.49
2022-12-14T18:53:25.134Z,71.42
2022-12-14T18:55:54.339Z,71.46
2022-12-14T18:58:28.011Z,70.27
2022-12-14T19:00:59.224Z,72.08
2022-12-14T19:03:30.331Z,72.08
2022-12-14T19:06:42.160Z,71.26
2022-12-14T19:08:58.526Z,71.51
2022-12-14T19:11:43.365Z,70.86
2022-12-14T19:14:14.283Z,70.41
2022-12-14T19:16:43.620Z,69.81
2022-12-14T19:19:13.945Z,71.48
2022-12-14T19:21:43.485Z,70.02
2022-12-14T19:24:15.519Z,70.95
2022-12-14T19:26:49.409Z,69.94
2022-12-14T19:29:20.233Z,70.25
2022-12-14T19:31:54.261Z,68.44
2022-12-14T19:34:24.032Z,68.73
2022-12-14T19:36:53.160Z,69.78
2022-12-14T19:39:22.287Z,68.69
2022-12-14T19:41:56.679Z,68.63
2022-12-14T19:44:29.114Z,69.47
2022-12-14T19:46:58.349Z,70.52
2022-12-14T19:49:29.320Z,71.75
2022-12-14T19:51:58.197Z,70.66
2022-12-14T19:54:28.414Z,69.58
2022-12-14T19:56:57.159Z,69.99
2022-12-14T19:59:25.821Z,69.29
2022-12-14T20:01:55.190Z,69.37
2022-12-14T20:04:27.113Z,70.53
2022-12-14T20:06:55.805Z,71.70
2022-12-14T20:09:26.390Z,70.36
2022-12-14T20:11:56.649Z,70.66
2022-12-14T20:14:28.237Z,71.77
2022-12-14T20:16:59.118Z,73.25
2022-12-14T20:19:28.791Z,72.49
2022-12-14T20:21:57.218Z,73.04
2022-12-14T20:24:27.933Z,72.87
2022-12-14T20:27:01.104Z,72.93
2022-12-14T20:29:30.391Z,72.52
2022-12-14T20:32:01.359Z,72.62
2022-12-14T20:34:31.532Z,72.08
2022-12-14T20:37:01.123Z,72.24
2022-12-14T20:39:31.331Z,73.04
2022-12-14T20:42:03.738Z,73.61
2022-12-14T20:44:32.668Z,71.30
2022-12-14T20:47:03.721Z,70.97
2022-12-14T20:49:33.980Z,71.93
2022-12-14T20:52:05.100Z,71.41
2022-12-14T20:54:36.677Z,71.22
2022-12-14T20:57:06.767Z,72.02
2022-12-14T20:59:35.430Z,71.86
2022-12-14T21:02:03.570Z,71.80
2022-12-14T21:04:33.205Z,71.06
2022-12-14T21:07:02.295Z,72.09
2022-12-14T21:09:30.306Z,70.40
2022-12-14T21:12:17.711Z,71.15
2022-12-14T21:14:50.464Z,70.71
2022-12-14T21:17:20.783Z,71.26
2022-12-14T21:19:48.670Z,71.89
2022-12-14T21:22:19.339Z,72.31
2022-12-14T21:25:05.280Z,71.62
2022-12-14T21:27:38.157Z,72.18
2022-12-14T21:30:10.158Z,70.85
2022-12-14T21:32:38.625Z,72.45
2022-12-14T21:35:07.536Z,73.08
2022-12-14T21:37:37.319Z,73.00
2022-12-14T21:40:05.335Z,73.28
2022-12-14T21:42:33.173Z,71.90
2022-12-14T21:45:00.601Z,71.85
2022-12-14T21:47:29.706Z,72.54
2022-12-14T21:49:57.736Z,71.57
2022-12-14T21:52:26.930Z,70.86
2022-12-14T21:54:54.604Z,70.69
2022-12-14T21:57:49.342Z,69.55
2022-12-14T22:00:18.438Z,69.91
2022-12-14T22:02:46.199Z,71.10
2022-12-14T22:05:13.825Z,71.15
2022-12-14T22:07:41.225Z,71.40
2022-12-14T22:10:08.862Z,72.92
2022-12-14T22:12:36.211Z,71.89
2022-12-14T22:15:03.794Z,72.82
2022-12-14T22:17:31.471Z,72.05
2022-12-14T22:19:59.455Z,71.38
2022-12-14T22:22:26.978Z,71.85
2022-12-14T22:24:54.682Z,71.09
2022-12-14T22:27:23.032Z,69.79
2022-12-14T22:29:50.405Z,71.00
2022-12-14T22:32:18.155Z,70.67
2022-12-14T22:34:45.623Z,71.33
2022-12-14T22:37:18.994Z,71.02
2022-12-14T22:39:47.766Z,70.44
2022-12-14T22:42:16.327Z,70.48
2022-12-14T22:44:43.695Z,70.54
2022-12-14T22:47:11.375Z,71.22
2022-12-14T22:49:38.717Z,70.09
2022-12-14T22:52:06.060Z,72.36
2022-12-14T22:54:33.751Z,72.94
2022-12-14T22:57:06.184Z,72.51
2022-12-14T22:59:36.968Z,73.70
2022-12-14T23:02:05.104Z,75.22
2022-12-14T23:04:32.606Z,74.50
2022-12-14T23:07:00.241Z,73.88
2022-12-14T23:09:46.270Z,74.29
2022-12-14T23:12:32.585Z,76.48
2022-12-14T23:15:19.137Z,76.80
2022-12-14T23:18:05.398Z,75.54
2022-12-14T23:20:51.473Z,76.78
2022-12-14T23:23:37.897Z,74.83
2022-12-14T23:26:23.791Z,75.66
2022-12-14T23:29:10.110Z,75.08
2022-12-14T23:31:56.183Z,74.69
2022-12-14T23:34:42.127Z,76.10
2022-12-14T23:37:28.173Z,73.03
2022-12-14T23:40:14.145Z,75.22
2022-12-14T23:43:00.184Z,75.22
2022-12-14T23:45:46.740Z,76.38
2022-12-14T23:48:32.484Z,74.65
2022-12-14T23:51:19.294Z,73.80
2022-12-14T23:54:05.408Z,72.96
2022-12-14T23:56:53.106Z,72.93
2022-12-14T23:59:39.127Z,71.73
